sensor_id;sensor_type;location;lat;lon;timestamp;temperature;humidity
18173;DHT22;9211;48.818;9.312;2024-01-30T00:00:27;2.90;99.90
18173;DHT22;9211;48.818;9.312;2024-01-30T00:05:21;2.90;99.90
18173;DHT22;9211;48.818;9.312;2024-01-30T00:07:50;3.20;99.90
18173;DHT22;9211;48.818;9.312;2024-01-30T00:10:18;4.40;99.90
18173;DHT22;9211;48.818;9.312;2024-01-30T00:12:46;2.80;99.90
18173;DHT22;9211;48.818;9.312;2024-01-30T00:15:13;2.70;99.90
18173;DHT22;9211;48.818;9.312;2024-01-30T00:17:40;-0.50;99.90
18173;DHT22;9211;48.818;9.312;2024-01-30T00:20:08;3.10;99.90
18173;DHT22;9211;48.818;9.312;2024-01-30T00:22:35;2.70;99.90
18173;DHT22;9211;48.818;9.312;2024-01-30T00:25:02;2.50;99.90
18173;DHT22;9211;48.818;9.312;2024-01-30T00:27:31;2.70;99.90
18173;DHT22;9211;48.818;9.312;2024-01-30T00:29:58;2.90;99.90
18173;DHT22;9211;48.818;9.312;2024-01-30T00:32:25;2.60;99.90
18173;DHT22;9211;48.818;9.312;2024-01-30T00:34:52;2.40;99.90
18173;DHT22;9211;48.818;9.312;2024-01-30T00:37:19;2.40;99.90
18173;DHT22;9211;48.818;9.312;2024-01-30T00:39:45;2.50;99.90
18173;DHT22;9211;48.818;9.312;2024-01-30T00:42:12;2.20;99.90
18173;DHT22;9211;48.818;9.312;2024-01-30T00:44:41;3.70;99.90
18173;DHT22;9211;48.818;9.312;2024-01-30T00:47:07;2.50;99.90
18173;DHT22;9211;48.818;9.312;2024-01-30T00:49:34;2.50;99.90
18173;DHT22;9211;48.818;9.312;2024-01-30T00:52:01;2.60;99.90
18173;DHT22;9211;48.818;9.312;2024-01-30T00:54:28;2.80;99.90
18173;DHT22;9211;48.818;9.312;2024-01-30T00:56:55;2.20;99.90
18173;DHT22;9211;48.818;9.312;2024-01-30T00:59:22;2.70;99.90
18173;DHT22;9211;48.818;9.312;2024-01-30T01:01:51;2.90;99.90
18173;DHT22;9211;48.818;9.312;2024-01-30T01:04:17;2.20;99.90
18173;DHT22;9211;48.818;9.312;2024-01-30T01:06:46;2.10;99.90
18173;DHT22;9211;48.818;9.312;2024-01-30T01:09:13;2.30;99.90
18173;DHT22;9211;48.818;9.312;2024-01-30T01:11:40;4.00;99.90
18173;DHT22;9211;48.818;9.312;2024-01-30T01:14:07;2.80;99.90
18173;DHT22;9211;48.818;9.312;2024-01-30T01:16:34;2.10;99.90
18173;DHT22;9211;48.818;9.312;2024-01-30T01:19:02;2.30;99.90
18173;DHT22;9211;48.818;9.312;2024-01-30T01:21:29;2.50;99.90
18173;DHT22;9211;48.818;9.312;2024-01-30T01:23:56;2.60;99.90
18173;DHT22;9211;48.818;9.312;2024-01-30T01:26:23;2.50;99.90
18173;DHT22;9211;48.818;9.312;2024-01-30T01:28:49;2.30;99.90
18173;DHT22;9211;48.818;9.312;2024-01-30T01:31:16;2.50;99.90
18173;DHT22;9211;48.818;9.312;2024-01-30T01:33:43;2.40;99.90
18173;DHT22;9211;48.818;9.312;2024-01-30T01:36:13;2.40;99.90
18173;DHT22;9211;48.818;9.312;2024-01-30T01:38:40;2.60;99.90
18173;DHT22;9211;48.818;9.312;2024-01-30T01:41:07;2.40;99.90
18173;DHT22;9211;48.818;9.312;2024-01-30T01:43:34;2.10;99.90
18173;DHT22;9211;48.818;9.312;2024-01-30T01:46:01;2.40;99.90
18173;DHT22;9211;48.818;9.312;2024-01-30T01:48:28;2.30;99.90
18173;DHT22;9211;48.818;9.312;2024-01-30T01:53:24;2.60;99.90
18173;DHT22;9211;48.818;9.312;2024-01-30T01:55:52;2.20;99.90
18173;DHT22;9211;48.818;9.312;2024-01-30T01:58:20;3.50;99.90
18173;DHT22;9211;48.818;9.312;2024-01-30T02:00:49;2.40;99.90
18173;DHT22;9211;48.818;9.312;2024-01-30T02:03:18;2.40;99.90
18173;DHT22;9211;48.818;9.312;2024-01-30T02:05:47;3.00;99.90
18173;DHT22;9211;48.818;9.312;2024-01-30T02:08:14;2.70;99.90
18173;DHT22;9211;48.818;9.312;2024-01-30T02:10:42;2.90;99.90
18173;DHT22;9211;48.818;9.312;2024-01-30T02:13:09;1.80;99.90
18173;DHT22;9211;48.818;9.312;2024-01-30T02:15:36;2.20;99.90
18173;DHT22;9211;48.818;9.312;2024-01-30T02:18:03;1.70;99.90
18173;DHT22;9211;48.818;9.312;2024-01-30T02:20:30;2.10;99.90
18173;DHT22;9211;48.818;9.312;2024-01-30T02:23:01;2.20;99.90
18173;DHT22;9211;48.818;9.312;2024-01-30T02:25:36;1.90;99.90
18173;DHT22;9211;48.818;9.312;2024-01-30T02:28:04;1.80;99.90
18173;DHT22;9211;48.818;9.312;2024-01-30T02:30:31;1.70;99.90
18173;DHT22;9211;48.818;9.312;2024-01-30T02:32:58;1.90;99.90
18173;DHT22;9211;48.818;9.312;2024-01-30T02:35:24;3.20;99.90
18173;DHT22;9211;48.818;9.312;2024-01-30T02:37:51;1.70;99.90
18173;DHT22;9211;48.818;9.312;2024-01-30T02:42:47;2.00;99.90
18173;DHT22;9211;48.818;9.312;2024-01-30T02:45:14;1.90;99.90
18173;DHT22;9211;48.818;9.312;2024-01-30T02:47:41;1.70;99.90
18173;DHT22;9211;48.818;9.312;2024-01-30T02:50:09;1.80;99.90
18173;DHT22;9211;48.818;9.312;2024-01-30T02:52:36;1.60;99.90
18173;DHT22;9211;48.818;9.312;2024-01-30T02:57:31;1.70;99.90
18173;DHT22;9211;48.818;9.312;2024-01-30T02:59:58;2.10;99.90
18173;DHT22;9211;48.818;9.312;2024-01-30T03:02:25;2.00;99.90
18173;DHT22;9211;48.818;9.312;2024-01-30T03:04:52;1.80;99.90
18173;DHT22;9211;48.818;9.312;2024-01-30T03:07:19;1.80;99.90
18173;DHT22;9211;48.818;9.312;2024-01-30T03:09:46;1.60;99.90
18173;DHT22;9211;48.818;9.312;2024-01-30T03:12:15;1.90;99.90
18173;DHT22;9211;48.818;9.312;2024-01-30T03:14:43;1.70;99.90
18173;DHT22;9211;48.818;9.312;2024-01-30T03:17:10;1.80;99.90
18173;DHT22;9211;48.818;9.312;2024-01-30T03:19:37;3.10;99.90
18173;DHT22;9211;48.818;9.312;2024-01-30T03:22:04;1.70;99.90
18173;DHT22;9211;48.818;9.312;2024-01-30T03:24:31;2.80;99.90
18173;DHT22;9211;48.818;9.312;2024-01-30T03:26:58;2.90;99.90
18173;DHT22;9211;48.818;9.312;2024-01-30T03:29:25;1.60;99.90
18173;DHT22;9211;48.818;9.312;2024-01-30T03:31:53;1.60;99.90
18173;DHT22;9211;48.818;9.312;2024-01-30T03:34:20;1.50;99.90
18173;DHT22;9211;48.818;9.312;2024-01-30T03:36:47;1.50;99.90
18173;DHT22;9211;48.818;9.312;2024-01-30T03:39:14;1.80;99.90
18173;DHT22;9211;48.818;9.312;2024-01-30T03:41:42;1.10;99.90
18173;DHT22;9211;48.818;9.312;2024-01-30T03:44:10;1.60;99.90
18173;DHT22;9211;48.818;9.312;2024-01-30T03:46:36;1.50;99.90
18173;DHT22;9211;48.818;9.312;2024-01-30T03:49:05;1.60;99.90
18173;DHT22;9211;48.818;9.312;2024-01-30T03:51:32;1.20;99.90
18173;DHT22;9211;48.818;9.312;2024-01-30T03:53:58;2.70;99.90
18173;DHT22;9211;48.818;9.312;2024-01-30T03:56:25;1.40;99.90
18173;DHT22;9211;48.818;9.312;2024-01-30T03:58:52;1.40;99.90
18173;DHT22;9211;48.818;9.312;2024-01-30T04:01:19;1.60;99.90
18173;DHT22;9211;48.818;9.312;2024-01-30T04:03:46;1.30;99.90
18173;DHT22;9211;48.818;9.312;2024-01-30T04:08:41;1.40;99.90
18173;DHT22;9211;48.818;9.312;2024-01-30T04:11:08;1.10;99.90
18173;DHT22;9211;48.818;9.312;2024-01-30T04:13:35;1.50;99.90
18173;DHT22;9211;48.818;9.312;2024-01-30T04:16:03;1.70;99.90
18173;DHT22;9211;48.818;9.312;2024-01-30T04:18:30;1.80;99.90
18173;DHT22;9211;48.818;9.312;2024-01-30T04:20:57;1.40;99.90
18173;DHT22;9211;48.818;9.312;2024-01-30T04:23:26;1.60;99.90
18173;DHT22;9211;48.818;9.312;2024-01-30T04:25:52;1.30;99.90
18173;DHT22;9211;48.818;9.312;2024-01-30T04:28:19;1.50;99.90
18173;DHT22;9211;48.818;9.312;2024-01-30T04:30:46;1.60;99.90
18173;DHT22;9211;48.818;9.312;2024-01-30T04:33:13;1.30;99.90
18173;DHT22;9211;48.818;9.312;2024-01-30T04:35:40;2.30;99.90
18173;DHT22;9211;48.818;9.312;2024-01-30T04:38:07;1.00;99.90
18173;DHT22;9211;48.818;9.312;2024-01-30T04:40:35;3.40;99.90
18173;DHT22;9211;48.818;9.312;2024-01-30T04:43:02;1.50;99.90
18173;DHT22;9211;48.818;9.312;2024-01-30T04:45:29;1.70;99.90
18173;DHT22;9211;48.818;9.312;2024-01-30T04:47:56;1.40;99.90
18173;DHT22;9211;48.818;9.312;2024-01-30T04:50:23;1.60;99.90
18173;DHT22;9211;48.818;9.312;2024-01-30T04:52:50;1.60;99.90
18173;DHT22;9211;48.818;9.312;2024-01-30T04:55:17;1.60;99.90
18173;DHT22;9211;48.818;9.312;2024-01-30T04:57:45;1.10;99.90
18173;DHT22;9211;48.818;9.312;2024-01-30T05:00:12;1.40;99.90
18173;DHT22;9211;48.818;9.312;2024-01-30T05:02:39;1.30;99.90
18173;DHT22;9211;48.818;9.312;2024-01-30T05:05:06;1.30;99.90
18173;DHT22;9211;48.818;9.312;2024-01-30T05:07:33;1.10;99.90
18173;DHT22;9211;48.818;9.312;2024-01-30T05:10:00;1.00;99.90
18173;DHT22;9211;48.818;9.312;2024-01-30T05:12:27;1.40;99.90
18173;DHT22;9211;48.818;9.312;2024-01-30T05:14:55;1.30;99.90
18173;DHT22;9211;48.818;9.312;2024-01-30T05:17:22;2.30;99.90
18173;DHT22;9211;48.818;9.312;2024-01-30T05:19:49;1.30;99.90
18173;DHT22;9211;48.818;9.312;2024-01-30T05:22:16;1.30;99.90
18173;DHT22;9211;48.818;9.312;2024-01-30T05:24:44;1.50;99.90
18173;DHT22;9211;48.818;9.312;2024-01-30T05:27:11;1.30;99.90
18173;DHT22;9211;48.818;9.312;2024-01-30T05:29:39;2.20;99.90
18173;DHT22;9211;48.818;9.312;2024-01-30T05:32:08;1.00;99.90
18173;DHT22;9211;48.818;9.312;2024-01-30T05:34:35;1.00;99.90
18173;DHT22;9211;48.818;9.312;2024-01-30T05:37:03;1.10;99.90
18173;DHT22;9211;48.818;9.312;2024-01-30T05:39:30;1.20;99.90
18173;DHT22;9211;48.818;9.312;2024-01-30T05:41:58;2.00;99.90
18173;DHT22;9211;48.818;9.312;2024-01-30T05:44:25;1.50;99.90
18173;DHT22;9211;48.818;9.312;2024-01-30T05:46:52;1.60;99.90
18173;DHT22;9211;48.818;9.312;2024-01-30T05:49:20;1.50;99.90
18173;DHT22;9211;48.818;9.312;2024-01-30T05:51:47;1.20;99.90
18173;DHT22;9211;48.818;9.312;2024-01-30T05:54:14;1.30;99.90
18173;DHT22;9211;48.818;9.312;2024-01-30T05:56:41;1.30;99.90
18173;DHT22;9211;48.818;9.312;2024-01-30T05:59:08;1.30;99.90
18173;DHT22;9211;48.818;9.312;2024-01-30T06:01:35;1.20;99.90
18173;DHT22;9211;48.818;9.312;2024-01-30T06:04:02;1.10;99.90
18173;DHT22;9211;48.818;9.312;2024-01-30T06:06:30;1.20;99.90
18173;DHT22;9211;48.818;9.312;2024-01-30T06:08:57;1.20;99.90
18173;DHT22;9211;48.818;9.312;2024-01-30T06:11:24;1.40;99.90
18173;DHT22;9211;48.818;9.312;2024-01-30T06:13:51;1.60;99.90
18173;DHT22;9211;48.818;9.312;2024-01-30T06:16:18;2.90;99.90
18173;DHT22;9211;48.818;9.312;2024-01-30T06:18:46;1.60;99.90
18173;DHT22;9211;48.818;9.312;2024-01-30T06:21:13;1.60;99.90
18173;DHT22;9211;48.818;9.312;2024-01-30T06:23:42;1.70;99.90
18173;DHT22;9211;48.818;9.312;2024-01-30T06:26:08;1.10;99.90
18173;DHT22;9211;48.818;9.312;2024-01-30T06:28:36;1.40;99.90
18173;DHT22;9211;48.818;9.312;2024-01-30T06:31:03;1.30;99.90
18173;DHT22;9211;48.818;9.312;2024-01-30T06:33:30;1.80;99.90
18173;DHT22;9211;48.818;9.312;2024-01-30T06:35:56;1.40;99.90
18173;DHT22;9211;48.818;9.312;2024-01-30T06:38:23;1.40;99.90
18173;DHT22;9211;48.818;9.312;2024-01-30T06:40:52;1.30;99.90
18173;DHT22;9211;48.818;9.312;2024-01-30T06:43:18;1.20;99.90
18173;DHT22;9211;48.818;9.312;2024-01-30T06:45:45;1.40;99.90
18173;DHT22;9211;48.818;9.312;2024-01-30T06:50:39;1.30;99.90
18173;DHT22;9211;48.818;9.312;2024-01-30T06:53:06;1.70;99.90
18173;DHT22;9211;48.818;9.312;2024-01-30T06:55:33;1.30;99.90
18173;DHT22;9211;48.818;9.312;2024-01-30T06:58:01;1.40;99.90
18173;DHT22;9211;48.818;9.312;2024-01-30T07:00:28;1.30;99.90
18173;DHT22;9211;48.818;9.312;2024-01-30T07:02:56;1.10;99.90
18173;DHT22;9211;48.818;9.312;2024-01-30T07:05:23;2.60;99.90
18173;DHT22;9211;48.818;9.312;2024-01-30T07:07:49;1.50;99.90
18173;DHT22;9211;48.818;9.312;2024-01-30T07:10:16;1.30;99.90
18173;DHT22;9211;48.818;9.312;2024-01-30T07:12:44;1.50;99.90
18173;DHT22;9211;48.818;9.312;2024-01-30T07:15:12;1.40;99.90
18173;DHT22;9211;48.818;9.312;2024-01-30T07:17:42;1.50;99.90
18173;DHT22;9211;48.818;9.312;2024-01-30T07:20:09;2.90;99.90
18173;DHT22;9211;48.818;9.312;2024-01-30T07:22:36;2.00;99.90
18173;DHT22;9211;48.818;9.312;2024-01-30T07:25:04;1.70;99.90
18173;DHT22;9211;48.818;9.312;2024-01-30T07:27:31;1.60;99.90
18173;DHT22;9211;48.818;9.312;2024-01-30T07:29:58;-1.20;99.90
18173;DHT22;9211;48.818;9.312;2024-01-30T07:32:26;1.90;99.90
18173;DHT22;9211;48.818;9.312;2024-01-30T07:34:53;1.80;99.90
18173;DHT22;9211;48.818;9.312;2024-01-30T07:37:20;3.50;99.90
18173;DHT22;9211;48.818;9.312;2024-01-30T07:39:47;1.50;99.90
18173;DHT22;9211;48.818;9.312;2024-01-30T07:42:14;1.70;99.90
18173;DHT22;9211;48.818;9.312;2024-01-30T07:44:41;2.10;99.90
18173;DHT22;9211;48.818;9.312;2024-01-30T07:47:07;3.50;99.90
18173;DHT22;9211;48.818;9.312;2024-01-30T07:49:36;2.60;99.90
18173;DHT22;9211;48.818;9.312;2024-01-30T07:52:05;2.00;99.90
18173;DHT22;9211;48.818;9.312;2024-01-30T07:54:32;2.00;99.90
18173;DHT22;9211;48.818;9.312;2024-01-30T07:57:00;2.00;99.90
18173;DHT22;9211;48.818;9.312;2024-01-30T07:59:27;2.10;99.90
18173;DHT22;9211;48.818;9.312;2024-01-30T08:01:54;2.30;99.90
18173;DHT22;9211;48.818;9.312;2024-01-30T08:04:21;1.90;99.90
18173;DHT22;9211;48.818;9.312;2024-01-30T08:06:49;2.10;99.90
18173;DHT22;9211;48.818;9.312;2024-01-30T08:09:16;2.50;99.90
18173;DHT22;9211;48.818;9.312;2024-01-30T08:11:43;1.90;99.90
18173;DHT22;9211;48.818;9.312;2024-01-30T08:14:10;2.60;99.90
18173;DHT22;9211;48.818;9.312;2024-01-30T08:16:39;2.10;99.90
18173;DHT22;9211;48.818;9.312;2024-01-30T08:19:06;4.00;99.90
18173;DHT22;9211;48.818;9.312;2024-01-30T08:21:33;2.50;99.90
18173;DHT22;9211;48.818;9.312;2024-01-30T08:24:04;2.70;99.90
18173;DHT22;9211;48.818;9.312;2024-01-30T08:26:31;3.70;99.90
18173;DHT22;9211;48.818;9.312;2024-01-30T08:28:58;2.80;99.90
18173;DHT22;9211;48.818;9.312;2024-01-30T08:31:25;2.60;99.90
18173;DHT22;9211;48.818;9.312;2024-01-30T08:33:52;2.50;99.90
18173;DHT22;9211;48.818;9.312;2024-01-30T08:36:19;2.90;99.90
18173;DHT22;9211;48.818;9.312;2024-01-30T08:38:46;2.80;99.90
18173;DHT22;9211;48.818;9.312;2024-01-30T08:41:14;3.00;99.90
18173;DHT22;9211;48.818;9.312;2024-01-30T08:43:41;4.20;99.90
18173;DHT22;9211;48.818;9.312;2024-01-30T08:46:10;3.50;99.90
18173;DHT22;9211;48.818;9.312;2024-01-30T08:48:37;3.90;99.90
18173;DHT22;9211;48.818;9.312;2024-01-30T08:51:04;3.50;99.90
18173;DHT22;9211;48.818;9.312;2024-01-30T08:53:34;3.70;99.90
18173;DHT22;9211;48.818;9.312;2024-01-30T08:56:02;3.60;99.90
18173;DHT22;9211;48.818;9.312;2024-01-30T08:58:30;4.30;99.90
18173;DHT22;9211;48.818;9.312;2024-01-30T09:00:57;3.70;99.90
18173;DHT22;9211;48.818;9.312;2024-01-30T09:03:24;3.80;99.90
18173;DHT22;9211;48.818;9.312;2024-01-30T09:05:51;5.20;99.90
18173;DHT22;9211;48.818;9.312;2024-01-30T09:08:16;4.00;99.90
18173;DHT22;9211;48.818;9.312;2024-01-30T09:10:43;5.60;99.90
18173;DHT22;9211;48.818;9.312;2024-01-30T09:13:11;4.50;99.90
18173;DHT22;9211;48.818;9.312;2024-01-30T09:15:40;4.50;99.90
18173;DHT22;9211;48.818;9.312;2024-01-30T09:18:07;4.70;99.90
18173;DHT22;9211;48.818;9.312;2024-01-30T09:20:34;4.70;99.90
18173;DHT22;9211;48.818;9.312;2024-01-30T09:23:01;4.70;99.90
18173;DHT22;9211;48.818;9.312;2024-01-30T09:25:28;4.60;99.90
18173;DHT22;9211;48.818;9.312;2024-01-30T09:27:55;4.60;99.90
18173;DHT22;9211;48.818;9.312;2024-01-30T09:30:21;4.60;99.90
18173;DHT22;9211;48.818;9.312;2024-01-30T09:32:50;4.70;99.90
18173;DHT22;9211;48.818;9.312;2024-01-30T09:35:17;4.80;99.90
18173;DHT22;9211;48.818;9.312;2024-01-30T09:37:43;4.90;99.90
18173;DHT22;9211;48.818;9.312;2024-01-30T09:40:11;5.00;99.90
18173;DHT22;9211;48.818;9.312;2024-01-30T09:42:38;5.40;99.90
18173;DHT22;9211;48.818;9.312;2024-01-30T09:45:05;5.90;99.90
18173;DHT22;9211;48.818;9.312;2024-01-30T09:47:32;5.40;99.90
18173;DHT22;9211;48.818;9.312;2024-01-30T09:50:06;5.30;99.90
18173;DHT22;9211;48.818;9.312;2024-01-30T09:52:33;5.60;99.90
18173;DHT22;9211;48.818;9.312;2024-01-30T09:55:01;5.50;99.90
18173;DHT22;9211;48.818;9.312;2024-01-30T09:57:28;5.80;99.90
18173;DHT22;9211;48.818;9.312;2024-01-30T09:59:55;5.90;99.90
18173;DHT22;9211;48.818;9.312;2024-01-30T10:02:22;9.30;99.90
18173;DHT22;9211;48.818;9.312;2024-01-30T10:04:51;6.00;99.90
18173;DHT22;9211;48.818;9.312;2024-01-30T10:07:19;6.40;99.90
18173;DHT22;9211;48.818;9.312;2024-01-30T10:09:46;6.20;99.90
18173;DHT22;9211;48.818;9.312;2024-01-30T10:12:15;6.50;99.90
18173;DHT22;9211;48.818;9.312;2024-01-30T10:14:42;6.50;99.90
18173;DHT22;9211;48.818;9.312;2024-01-30T10:17:10;6.70;99.90
18173;DHT22;9211;48.818;9.312;2024-01-30T10:19:37;6.70;99.90
18173;DHT22;9211;48.818;9.312;2024-01-30T10:22:05;6.70;99.90
18173;DHT22;9211;48.818;9.312;2024-01-30T10:24:34;6.90;99.90
18173;DHT22;9211;48.818;9.312;2024-01-30T10:27:02;6.90;99.90
18173;DHT22;9211;48.818;9.312;2024-01-30T10:29:28;7.00;99.90
18173;DHT22;9211;48.818;9.312;2024-01-30T10:34:26;6.00;99.90
18173;DHT22;9211;48.818;9.312;2024-01-30T10:36:59;7.40;99.90
18173;DHT22;9211;48.818;9.312;2024-01-30T10:39:29;7.40;99.90
18173;DHT22;9211;48.818;9.312;2024-01-30T10:42:03;7.50;99.90
18173;DHT22;9211;48.818;9.312;2024-01-30T10:44:36;7.50;99.90
18173;DHT22;9211;48.818;9.312;2024-01-30T10:47:06;7.60;99.90
18173;DHT22;9211;48.818;9.312;2024-01-30T10:49:39;7.70;99.90
18173;DHT22;9211;48.818;9.312;2024-01-30T10:52:08;7.80;99.90
18173;DHT22;9211;48.818;9.312;2024-01-30T10:54:36;8.60;99.90
18173;DHT22;9211;48.818;9.312;2024-01-30T10:57:05;7.80;99.90
18173;DHT22;9211;48.818;9.312;2024-01-30T10:59:33;7.80;99.90
18173;DHT22;9211;48.818;9.312;2024-01-30T11:02:00;7.80;99.90
18173;DHT22;9211;48.818;9.312;2024-01-30T11:04:27;8.00;99.90
18173;DHT22;9211;48.818;9.312;2024-01-30T11:07:02;8.20;99.90
18173;DHT22;9211;48.818;9.312;2024-01-30T11:09:29;8.40;99.90
18173;DHT22;9211;48.818;9.312;2024-01-30T11:11:57;8.20;99.90
18173;DHT22;9211;48.818;9.312;2024-01-30T11:16:57;8.20;99.90
18173;DHT22;9211;48.818;9.312;2024-01-30T11:19:24;8.30;99.90
18173;DHT22;9211;48.818;9.312;2024-01-30T11:21:53;8.40;99.90
18173;DHT22;9211;48.818;9.312;2024-01-30T11:24:22;8.40;99.90
18173;DHT22;9211;48.818;9.312;2024-01-30T11:26:49;8.10;99.90
18173;DHT22;9211;48.818;9.312;2024-01-30T11:29:17;8.40;99.90
18173;DHT22;9211;48.818;9.312;2024-01-30T11:32:04;8.50;99.90
18173;DHT22;9211;48.818;9.312;2024-01-30T11:34:32;8.60;99.90
18173;DHT22;9211;48.818;9.312;2024-01-30T11:37:03;8.60;99.90
18173;DHT22;9211;48.818;9.312;2024-01-30T11:39:33;8.80;99.90
18173;DHT22;9211;48.818;9.312;2024-01-30T11:42:01;8.70;99.90
18173;DHT22;9211;48.818;9.312;2024-01-30T11:44:30;8.80;99.90
18173;DHT22;9211;48.818;9.312;2024-01-30T11:46:57;8.90;99.90
18173;DHT22;9211;48.818;9.312;2024-01-30T11:49:25;9.00;99.90
18173;DHT22;9211;48.818;9.312;2024-01-30T11:51:52;9.00;99.90
18173;DHT22;9211;48.818;9.312;2024-01-30T11:54:19;8.90;99.90
18173;DHT22;9211;48.818;9.312;2024-01-30T11:56:46;9.20;99.90
18173;DHT22;9211;48.818;9.312;2024-01-30T11:59:14;10.50;99.90
18173;DHT22;9211;48.818;9.312;2024-01-30T12:01:41;9.30;99.90
18173;DHT22;9211;48.818;9.312;2024-01-30T12:04:08;9.20;99.90
18173;DHT22;9211;48.818;9.312;2024-01-30T12:06:37;9.20;99.90
18173;DHT22;9211;48.818;9.312;2024-01-30T12:09:04;9.20;99.90
18173;DHT22;9211;48.818;9.312;2024-01-30T12:11:32;9.40;99.90
18173;DHT22;9211;48.818;9.312;2024-01-30T12:13:59;9.80;99.90
18173;DHT22;9211;48.818;9.312;2024-01-30T12:16:26;9.30;99.90
18173;DHT22;9211;48.818;9.312;2024-01-30T12:18:59;9.50;99.90
18173;DHT22;9211;48.818;9.312;2024-01-30T12:21:28;9.70;99.90
18173;DHT22;9211;48.818;9.312;2024-01-30T12:23:56;9.80;99.90
18173;DHT22;9211;48.818;9.312;2024-01-30T12:26:24;9.80;99.90
18173;DHT22;9211;48.818;9.312;2024-01-30T12:28:54;9.70;99.90
18173;DHT22;9211;48.818;9.312;2024-01-30T12:31:26;9.90;99.90
18173;DHT22;9211;48.818;9.312;2024-01-30T12:33:53;10.00;99.90
18173;DHT22;9211;48.818;9.312;2024-01-30T12:36:21;9.90;99.90
18173;DHT22;9211;48.818;9.312;2024-01-30T12:41:17;9.90;99.90
18173;DHT22;9211;48.818;9.312;2024-01-30T12:43:44;9.80;99.90
18173;DHT22;9211;48.818;9.312;2024-01-30T12:46:11;9.90;99.90
18173;DHT22;9211;48.818;9.312;2024-01-30T12:48:38;9.90;99.90
18173;DHT22;9211;48.818;9.312;2024-01-30T12:51:05;10.10;99.90
18173;DHT22;9211;48.818;9.312;2024-01-30T12:53:31;12.90;99.90
18173;DHT22;9211;48.818;9.312;2024-01-30T12:55:59;10.90;99.90
18173;DHT22;9211;48.818;9.312;2024-01-30T12:58:27;10.00;99.90
18173;DHT22;9211;48.818;9.312;2024-01-30T13:00:54;10.50;99.90
18173;DHT22;9211;48.818;9.312;2024-01-30T13:03:22;13.50;99.90
18173;DHT22;9211;48.818;9.312;2024-01-30T13:05:49;10.20;99.90
18173;DHT22;9211;48.818;9.312;2024-01-30T13:08:15;10.30;99.90
18173;DHT22;9211;48.818;9.312;2024-01-30T13:10:42;10.20;99.90
18173;DHT22;9211;48.818;9.312;2024-01-30T13:13:09;10.20;99.90
18173;DHT22;9211;48.818;9.312;2024-01-30T13:15:37;10.50;99.90
18173;DHT22;9211;48.818;9.312;2024-01-30T13:18:06;12.80;99.90
18173;DHT22;9211;48.818;9.312;2024-01-30T13:20:33;10.00;99.90
18173;DHT22;9211;48.818;9.312;2024-01-30T13:23:00;10.90;99.90
18173;DHT22;9211;48.818;9.312;2024-01-30T13:27:54;10.90;99.90
18173;DHT22;9211;48.818;9.312;2024-01-30T13:30:21;10.80;99.90
18173;DHT22;9211;48.818;9.312;2024-01-30T13:32:49;11.20;99.90
18173;DHT22;9211;48.818;9.312;2024-01-30T13:35:16;11.20;99.90
18173;DHT22;9211;48.818;9.312;2024-01-30T13:37:43;11.50;99.90
18173;DHT22;9211;48.818;9.312;2024-01-30T13:40:11;11.70;99.90
18173;DHT22;9211;48.818;9.312;2024-01-30T13:42:38;11.80;99.90
18173;DHT22;9211;48.818;9.312;2024-01-30T13:45:06;12.40;99.90
18173;DHT22;9211;48.818;9.312;2024-01-30T13:47:35;11.00;99.90
18173;DHT22;9211;48.818;9.312;2024-01-30T13:50:04;11.90;99.90
18173;DHT22;9211;48.818;9.312;2024-01-30T13:52:31;12.00;99.90
18173;DHT22;9211;48.818;9.312;2024-01-30T13:54:58;11.90;99.90
18173;DHT22;9211;48.818;9.312;2024-01-30T13:57:25;11.70;99.90
18173;DHT22;9211;48.818;9.312;2024-01-30T13:59:51;11.50;99.90
18173;DHT22;9211;48.818;9.312;2024-01-30T14:02:18;11.50;99.90
18173;DHT22;9211;48.818;9.312;2024-01-30T14:04:46;11.40;99.90
18173;DHT22;9211;48.818;9.312;2024-01-30T14:07:14;11.30;99.90
18173;DHT22;9211;48.818;9.312;2024-01-30T14:09:41;11.30;99.90
18173;DHT22;9211;48.818;9.312;2024-01-30T14:12:08;11.10;99.90
18173;DHT22;9211;48.818;9.312;2024-01-30T14:14:35;11.00;99.90
18173;DHT22;9211;48.818;9.312;2024-01-30T14:17:03;11.10;99.90
18173;DHT22;9211;48.818;9.312;2024-01-30T14:19:32;11.10;99.90
18173;DHT22;9211;48.818;9.312;2024-01-30T14:21:59;11.60;99.90
18173;DHT22;9211;48.818;9.312;2024-01-30T14:24:28;11.20;99.90
18173;DHT22;9211;48.818;9.312;2024-01-30T14:26:55;11.20;99.90
18173;DHT22;9211;48.818;9.312;2024-01-30T14:29:22;11.20;99.90
18173;DHT22;9211;48.818;9.312;2024-01-30T14:31:48;11.20;99.90
18173;DHT22;9211;48.818;9.312;2024-01-30T14:34:15;11.10;99.90
18173;DHT22;9211;48.818;9.312;2024-01-30T14:36:43;11.00;99.90
18173;DHT22;9211;48.818;9.312;2024-01-30T14:39:10;10.90;99.90
18173;DHT22;9211;48.818;9.312;2024-01-30T14:41:38;10.70;99.90
18173;DHT22;9211;48.818;9.312;2024-01-30T14:44:05;10.80;99.90
18173;DHT22;9211;48.818;9.312;2024-01-30T14:46:33;11.10;99.90
18173;DHT22;9211;48.818;9.312;2024-01-30T14:49:00;10.60;99.90
18173;DHT22;9211;48.818;9.312;2024-01-30T14:51:30;10.80;99.90
18173;DHT22;9211;48.818;9.312;2024-01-30T14:53:58;10.80;99.90
18173;DHT22;9211;48.818;9.312;2024-01-30T14:56:26;11.10;99.90
18173;DHT22;9211;48.818;9.312;2024-01-30T15:01:24;11.60;99.90
18173;DHT22;9211;48.818;9.312;2024-01-30T15:03:51;12.00;99.90
18173;DHT22;9211;48.818;9.312;2024-01-30T15:06:18;11.60;99.90
18173;DHT22;9211;48.818;9.312;2024-01-30T15:08:46;11.60;99.90
18173;DHT22;9211;48.818;9.312;2024-01-30T15:13:40;11.90;99.90
18173;DHT22;9211;48.818;9.312;2024-01-30T15:16:08;11.70;99.90
18173;DHT22;9211;48.818;9.312;2024-01-30T15:18:36;11.60;99.90
18173;DHT22;9211;48.818;9.312;2024-01-30T15:21:03;11.60;99.90
18173;DHT22;9211;48.818;9.312;2024-01-30T15:23:30;11.50;99.90
18173;DHT22;9211;48.818;9.312;2024-01-30T15:25:57;11.50;99.90
18173;DHT22;9211;48.818;9.312;2024-01-30T15:28:34;11.30;99.90
18173;DHT22;9211;48.818;9.312;2024-01-30T15:31:02;11.00;99.90
18173;DHT22;9211;48.818;9.312;2024-01-30T15:33:30;11.10;99.90
18173;DHT22;9211;48.818;9.312;2024-01-30T15:35:57;10.80;99.90
18173;DHT22;9211;48.818;9.312;2024-01-30T15:38:25;10.70;99.90
18173;DHT22;9211;48.818;9.312;2024-01-30T15:40:52;10.80;99.90
18173;DHT22;9211;48.818;9.312;2024-01-30T15:43:19;10.60;99.90
18173;DHT22;9211;48.818;9.312;2024-01-30T15:45:46;10.50;99.90
18173;DHT22;9211;48.818;9.312;2024-01-30T15:48:13;10.30;99.90
18173;DHT22;9211;48.818;9.312;2024-01-30T15:50:41;10.20;99.90
18173;DHT22;9211;48.818;9.312;2024-01-30T15:53:08;10.30;99.90
18173;DHT22;9211;48.818;9.312;2024-01-30T15:55:35;10.20;99.90
18173;DHT22;9211;48.818;9.312;2024-01-30T15:58:03;10.10;99.90
18173;DHT22;9211;48.818;9.312;2024-01-30T16:00:31;9.90;99.90
18173;DHT22;9211;48.818;9.312;2024-01-30T16:02:58;10.00;99.90
18173;DHT22;9211;48.818;9.312;2024-01-30T16:05:25;9.80;99.90
18173;DHT22;9211;48.818;9.312;2024-01-30T16:07:53;9.80;99.90
18173;DHT22;9211;48.818;9.312;2024-01-30T16:10:20;9.70;99.90
18173;DHT22;9211;48.818;9.312;2024-01-30T16:12:47;9.50;99.90
18173;DHT22;9211;48.818;9.312;2024-01-30T16:15:15;9.70;99.90
18173;DHT22;9211;48.818;9.312;2024-01-30T16:17:44;9.60;99.90
18173;DHT22;9211;48.818;9.312;2024-01-30T16:20:11;9.60;99.90
18173;DHT22;9211;48.818;9.312;2024-01-30T16:22:40;9.50;99.90
18173;DHT22;9211;48.818;9.312;2024-01-30T16:25:11;9.50;99.90
18173;DHT22;9211;48.818;9.312;2024-01-30T16:27:40;9.40;99.90
18173;DHT22;9211;48.818;9.312;2024-01-30T16:30:08;9.20;99.90